createdAt,value
2018-08-12T00:00:48.134Z,99.99
2018-08-12T00:01:48.133Z,99.57
2018-08-12T00:02:48.135Z,99.08
2018-08-12T00:03:48.129Z,99.99
2018-08-12T00:04:48.129Z,99.99
2018-08-12T00:05:48.126Z,99.99
2018-08-12T00:06:48.125Z,99.99
2018-08-12T00:07:48.124Z,99.99
2018-08-12T00:08:48.124Z,99.99
2018-08-12T00:09:48.121Z,99.99
2018-08-12T00:10:48.120Z,99.99
2018-08-12T00:11:48.119Z,99.99
2018-08-12T00:12:48.117Z,99.99
2018-08-12T00:13:48.116Z,99.99
2018-08-12T00:14:48.114Z,99.99
2018-08-12T00:15:48.114Z,99.99
2018-08-12T00:16:48.112Z,99.99
2018-08-12T00:17:48.110Z,99.99
2018-08-12T00:18:48.108Z,99.99
2018-08-12T00:19:48.107Z,99.99
2018-08-12T00:20:48.107Z,99.99
2018-08-12T00:21:48.104Z,99.99
2018-08-12T00:22:48.104Z,99.99
2018-08-12T00:23:48.102Z,99.99
2018-08-12T00:24:48.101Z,99.99
2018-08-12T00:25:48.098Z,99.99
2018-08-12T00:26:48.100Z,99.99
2018-08-12T00:27:48.095Z,99.99
2018-08-12T00:28:48.094Z,99.99
2018-08-12T00:29:48.096Z,99.99
2018-08-12T00:30:48.092Z,99.99
2018-08-12T00:31:48.091Z,99.99
2018-08-12T00:32:48.091Z,99.99
2018-08-12T00:33:48.088Z,99.99
2018-08-12T00:34:48.086Z,99.99
2018-08-12T00:35:48.083Z,99.99
2018-08-12T00:36:48.084Z,99.99
2018-08-12T00:37:48.079Z,99.99
2018-08-12T00:38:48.081Z,99.99
2018-08-12T00:39:48.078Z,99.99
2018-08-12T00:40:48.077Z,99.99
2018-08-12T00:41:48.074Z,99.99
2018-08-12T00:42:48.072Z,99.99
2018-08-12T00:43:48.072Z,99.99
2018-08-12T00:44:48.074Z,99.99
2018-08-12T00:45:48.069Z,99.99
2018-08-12T00:46:48.067Z,99.99
2018-08-12T00:47:48.066Z,99.99
2018-08-12T00:48:48.072Z,99.99
2018-08-12T00:49:48.061Z,99.99
2018-08-12T00:50:48.059Z,99.99
2018-08-12T00:51:48.059Z,99.99
2018-08-12T00:52:48.056Z,99.99
2018-08-12T00:53:48.055Z,99.99
2018-08-12T00:54:48.053Z,99.99
2018-08-12T00:55:48.056Z,99.99
2018-08-12T00:56:48.051Z,99.99
2018-08-12T00:57:48.049Z,99.99
2018-08-12T00:58:48.047Z,99.99
2018-08-12T00:59:48.045Z,99.99
2018-08-12T01:00:48.043Z,99.99
2018-08-12T01:01:48.040Z,99.99
2018-08-12T01:02:48.039Z,99.99
2018-08-12T01:03:48.037Z,99.99
2018-08-12T01:04:48.036Z,99.99
2018-08-12T01:05:48.034Z,99.99
2018-08-12T01:06:48.032Z,99.99
2018-08-12T01:07:48.031Z,99.99
2018-08-12T01:08:48.028Z,99.99
2018-08-12T01:09:48.025Z,99.99
2018-08-12T01:10:48.026Z,99.99
2018-08-12T01:11:48.022Z,99.99
2018-08-12T01:12:48.020Z,99.99
2018-08-12T01:13:48.018Z,99.99
2018-08-12T01:14:48.017Z,99.99
2018-08-12T01:15:48.014Z,99.99
2018-08-12T01:16:48.012Z,99.99
2018-08-12T01:17:48.009Z,99.99
2018-08-12T01:18:48.009Z,99.99
2018-08-12T01:19:48.006Z,99.99
2018-08-12T01:20:48.003Z,99.99
2018-08-12T01:21:48.001Z,99.99
2018-08-12T01:22:48.000Z,99.99
2018-08-12T01:23:48.000Z,99.99
2018-08-12T01:24:47.996Z,99.99
2018-08-12T01:25:47.992Z,99.99
2018-08-12T01:26:47.994Z,99.99
2018-08-12T01:27:47.989Z,99.99
2018-08-12T01:28:47.986Z,99.99
2018-08-12T01:29:47.985Z,99.99
2018-08-12T01:30:47.983Z,99.99
2018-08-12T01:31:47.979Z,99.99
2018-08-12T01:32:47.979Z,99.99
2018-08-12T01:33:47.976Z,99.99
2018-08-12T01:34:47.973Z,99.99
2018-08-12T01:35:47.984Z,99.99
2018-08-12T01:36:47.970Z,99.99
2018-08-12T01:37:47.967Z,99.99
2018-08-12T01:38:47.965Z,99.99
2018-08-12T01:39:47.962Z,99.99
2018-08-12T01:40:47.961Z,99.99
2018-08-12T01:41:47.957Z,99.99
2018-08-12T01:42:47.961Z,99.99
2018-08-12T01:43:47.956Z,99.99
2018-08-12T01:44:47.952Z,99.99
2018-08-12T01:45:47.951Z,99.99
2018-08-12T01:46:47.945Z,99.99
2018-08-12T01:47:47.944Z,99.99
2018-08-12T01:48:47.942Z,99.99
2018-08-12T01:49:47.939Z,99.99
2018-08-12T01:50:47.935Z,99.99
2018-08-12T01:51:47.934Z,99.99
2018-08-12T01:52:47.932Z,99.99
2018-08-12T01:53:47.928Z,99.99
2018-08-12T01:54:47.926Z,99.99
2018-08-12T01:55:47.924Z,99.99
2018-08-12T01:56:47.923Z,99.99
2018-08-12T01:57:47.918Z,99.99
2018-08-12T01:58:47.925Z,99.99
2018-08-12T01:59:47.918Z,99.99
2018-08-12T02:00:47.913Z,99.99
2018-08-12T02:01:47.909Z,99.99
2018-08-12T02:02:47.906Z,99.99
2018-08-12T02:03:47.904Z,99.99
2018-08-12T02:04:47.902Z,99.99
2018-08-12T02:05:47.900Z,99.99
2018-08-12T02:06:47.897Z,99.99
2018-08-12T02:07:47.894Z,99.99
2018-08-12T02:08:47.893Z,99.99
2018-08-12T02:09:47.890Z,99.99
2018-08-12T02:10:47.886Z,99.99
2018-08-12T02:11:47.884Z,99.99
2018-08-12T02:12:47.883Z,99.99
2018-08-12T02:13:47.879Z,99.99
2018-08-12T02:14:47.878Z,99.99
2018-08-12T02:15:47.874Z,99.99
2018-08-12T02:16:47.873Z,99.99
2018-08-12T02:17:47.868Z,99.99
2018-08-12T02:18:47.867Z,99.99
2018-08-12T02:19:47.866Z,99.99
2018-08-12T02:20:47.862Z,99.99
2018-08-12T02:21:47.859Z,99.99
2018-08-12T02:22:47.857Z,99.99
2018-08-12T02:23:47.855Z,99.99
2018-08-12T02:24:47.852Z,99.99
2018-08-12T02:25:47.849Z,99.99
2018-08-12T02:26:47.847Z,99.99
2018-08-12T02:27:47.843Z,99.99
2018-08-12T02:28:47.841Z,99.99
2018-08-12T02:29:47.839Z,99.99
2018-08-12T02:30:47.836Z,99.99
2018-08-12T02:31:47.833Z,99.99
2018-08-12T02:32:47.831Z,99.99
2018-08-12T02:33:47.829Z,99.99
2018-08-12T02:34:47.826Z,99.99
2018-08-12T02:35:47.822Z,99.99
2018-08-12T02:36:47.820Z,99.99
2018-08-12T02:37:47.818Z,99.99
2018-08-12T02:38:47.816Z,99.99
2018-08-12T02:39:47.812Z,99.99
2018-08-12T02:40:47.811Z,99.99
2018-08-12T02:41:47.811Z,99.99
2018-08-12T02:42:47.804Z,99.99
2018-08-12T02:43:47.803Z,99.99
2018-08-12T02:44:47.801Z,99.99
2018-08-12T02:45:47.796Z,99.99
2018-08-12T02:46:47.794Z,99.99
2018-08-12T02:47:47.791Z,99.99
2018-08-12T02:48:47.788Z,99.99
2018-08-12T02:49:47.792Z,99.99
2018-08-12T02:50:47.783Z,99.99
2018-08-12T02:51:47.780Z,99.99
2018-08-12T02:52:47.778Z,99.99
2018-08-12T02:53:47.774Z,99.99
2018-08-12T02:54:47.773Z,99.99
2018-08-12T02:55:47.771Z,99.99
2018-08-12T02:56:47.768Z,99.99
2018-08-12T02:57:47.775Z,99.99
2018-08-12T02:58:47.761Z,99.99
2018-08-12T02:59:47.759Z,99.99
2018-08-12T03:00:47.757Z,99.99
2018-08-12T03:01:47.760Z,99.99
2018-08-12T03:02:47.751Z,99.99
2018-08-12T03:03:47.753Z,99.99
2018-08-12T03:04:47.745Z,99.99
2018-08-12T03:05:47.740Z,99.99
2018-08-12T03:06:47.738Z,99.99
2018-08-12T03:07:47.737Z,99.99
2018-08-12T03:08:47.734Z,99.99
2018-08-12T03:09:47.730Z,99.99
2018-08-12T03:10:47.727Z,99.99
2018-08-12T03:11:47.726Z,99.99
2018-08-12T03:12:47.729Z,99.99
2018-08-12T03:13:47.718Z,99.99
2018-08-12T03:14:47.715Z,99.99
2018-08-12T03:15:47.713Z,99.99
2018-08-12T03:16:47.714Z,99.99
2018-08-12T03:17:47.707Z,99.99
2018-08-12T03:18:47.707Z,99.99
2018-08-12T03:19:47.701Z,99.99
2018-08-12T03:20:47.699Z,99.99
2018-08-12T03:21:47.699Z,99.99
2018-08-12T03:22:47.694Z,99.99
2018-08-12T03:23:47.691Z,99.99
2018-08-12T03:24:47.686Z,99.99
2018-08-12T03:25:47.687Z,99.99
2018-08-12T03:26:47.689Z,99.99
2018-08-12T03:27:47.679Z,99.99
2018-08-12T03:28:47.676Z,99.99
2018-08-12T03:29:47.671Z,99.99
2018-08-12T03:30:47.670Z,99.99
2018-08-12T03:31:47.668Z,99.99
2018-08-12T03:32:47.663Z,99.99
2018-08-12T03:33:47.660Z,99.99
2018-08-12T03:34:47.658Z,99.99
2018-08-12T03:35:47.655Z,99.99
2018-08-12T03:36:47.653Z,99.99
2018-08-12T03:37:47.648Z,99.99
2018-08-12T03:38:47.648Z,99.99
2018-08-12T03:39:47.647Z,99.99
2018-08-12T03:40:47.640Z,99.99
2018-08-12T03:41:47.642Z,99.99
2018-08-12T03:42:47.635Z,99.99
2018-08-12T03:43:47.631Z,99.99
2018-08-12T03:44:47.628Z,99.99
2018-08-12T03:45:47.624Z,99.99
2018-08-12T03:46:47.621Z,99.99
2018-08-12T03:47:47.619Z,99.99
2018-08-12T03:48:47.638Z,99.99
2018-08-12T03:49:47.613Z,99.99
2018-08-12T03:50:47.609Z,99.99
2018-08-12T03:51:47.607Z,99.99
2018-08-12T03:52:47.605Z,99.99
2018-08-12T03:53:47.601Z,99.99
2018-08-12T03:54:47.597Z,99.99
2018-08-12T03:55:47.595Z,99.99
2018-08-12T03:56:47.593Z,99.99
2018-08-12T03:57:47.590Z,99.99
2018-08-12T03:58:47.590Z,99.99
2018-08-12T03:59:47.587Z,99.99
2018-08-12T04:00:47.581Z,99.99
2018-08-12T04:01:47.577Z,99.99
2018-08-12T04:02:47.575Z,99.99
2018-08-12T04:03:47.572Z,99.99
2018-08-12T04:04:47.570Z,99.99
2018-08-12T04:05:47.565Z,99.99
2018-08-12T04:06:47.563Z,99.99
2018-08-12T04:07:47.560Z,99.99
2018-08-12T04:08:47.557Z,99.99
2018-08-12T04:09:47.553Z,99.99
2018-08-12T04:10:47.551Z,99.99
2018-08-12T04:11:47.548Z,99.99
2018-08-12T04:12:47.546Z,99.99
2018-08-12T04:13:47.541Z,99.99
2018-08-12T04:14:47.538Z,99.99
2018-08-12T04:15:47.537Z,99.99
2018-08-12T04:16:47.534Z,99.99
2018-08-12T04:17:47.535Z,99.99
2018-08-12T04:18:47.527Z,99.99
2018-08-12T04:19:47.524Z,99.99
2018-08-12T04:20:47.523Z,99.99
2018-08-12T04:21:47.518Z,99.99
2018-08-12T04:22:47.517Z,99.99
2018-08-12T04:23:47.514Z,99.99
2018-08-12T04:24:47.511Z,99.99
2018-08-12T04:25:47.506Z,99.99
2018-08-12T04:26:47.503Z,99.99
2018-08-12T04:27:47.501Z,99.99
2018-08-12T04:28:47.500Z,99.99
2018-08-12T04:29:47.496Z,99.99
2018-08-12T04:30:47.493Z,99.99
2018-08-12T04:31:47.493Z,99.99
2018-08-12T04:32:47.488Z,99.99
2018-08-12T04:33:47.484Z,99.99
2018-08-12T04:34:47.482Z,99.99
2018-08-12T04:35:47.478Z,99.99
2018-08-12T04:36:47.477Z,99.99
2018-08-12T04:37:47.472Z,99.99
2018-08-12T04:38:47.469Z,99.99
2018-08-12T04:39:47.469Z,99.99
2018-08-12T04:40:47.463Z,99.99
2018-08-12T04:41:47.460Z,99.99
2018-08-12T04:42:47.459Z,99.99
2018-08-12T04:43:47.456Z,99.99
2018-08-12T04:44:47.453Z,99.99
2018-08-12T04:45:47.448Z,99.99
2018-08-12T04:46:47.446Z,99.99
2018-08-12T04:47:47.445Z,99.99
2018-08-12T04:48:47.440Z,99.99
2018-08-12T04:49:47.438Z,99.99
2018-08-12T04:50:47.435Z,99.99
2018-08-12T04:51:47.437Z,99.99
2018-08-12T04:52:47.430Z,99.99
2018-08-12T04:53:47.426Z,99.99
2018-08-12T04:54:47.425Z,99.99
2018-08-12T04:55:47.423Z,99.99
2018-08-12T04:56:47.419Z,99.99
2018-08-12T04:57:47.416Z,99.99
2018-08-12T04:58:47.413Z,99.99
2018-08-12T04:59:47.412Z,99.99
2018-08-12T05:00:47.410Z,99.99
2018-08-12T05:01:47.406Z,99.99
2018-08-12T05:02:47.404Z,99.99
2018-08-12T05:03:47.402Z,99.99
2018-08-12T05:04:47.400Z,99.99
2018-08-12T05:05:47.396Z,99.99
2018-08-12T05:06:47.395Z,99.99
2018-08-12T05:07:47.393Z,99.99
2018-08-12T05:08:47.391Z,99.99
2018-08-12T05:09:47.388Z,99.99
2018-08-12T05:10:47.384Z,99.99
2018-08-12T05:11:47.383Z,99.99
2018-08-12T05:12:47.381Z,99.99
2018-08-12T05:13:47.377Z,99.99
2018-08-12T05:14:47.376Z,99.99
2018-08-12T05:15:47.375Z,99.99
2018-08-12T05:16:47.372Z,99.90
2018-08-12T05:17:47.370Z,99.99
2018-08-12T05:18:47.368Z,99.80
2018-08-12T05:19:47.372Z,99.14
2018-08-12T05:20:47.363Z,97.89
2018-08-12T05:21:47.362Z,97.42
2018-08-12T05:22:47.360Z,96.56
2018-08-12T05:23:47.358Z,95.61
2018-08-12T05:24:47.356Z,95.27
2018-08-12T05:25:47.355Z,94.51
2018-08-12T05:26:47.352Z,93.93
2018-08-12T05:27:47.350Z,93.16
2018-08-12T05:28:47.350Z,92.79
2018-08-12T05:29:47.347Z,92.11
2018-08-12T05:30:47.346Z,91.45
2018-08-12T05:31:47.345Z,91.54
2018-08-12T05:32:47.343Z,90.88
2018-08-12T05:33:47.340Z,90.68
2018-08-12T05:34:47.338Z,90.01
2018-08-12T05:35:47.339Z,89.63
2018-08-12T05:36:47.337Z,89.29
2018-08-12T05:37:47.334Z,89.67
2018-08-12T05:38:47.334Z,90.25
2018-08-12T05:39:47.335Z,89.48
2018-08-12T05:40:47.331Z,89.29
2018-08-12T05:41:47.329Z,88.91
2018-08-12T05:42:47.329Z,89.58
2018-08-12T05:43:47.327Z,89.48
2018-08-12T05:44:47.327Z,90.06
2018-08-12T05:45:47.325Z,90.06
2018-08-12T05:46:47.323Z,90.34
2018-08-12T05:47:47.324Z,90.16
2018-08-12T05:48:47.322Z,89.48
2018-08-12T05:49:47.319Z,88.81
2018-08-12T05:50:47.319Z,88.72
2018-08-12T05:51:47.323Z,89.01
2018-08-12T05:52:47.317Z,87.81
2018-08-12T05:53:47.315Z,87.52
2018-08-12T05:54:47.319Z,86.08
2018-08-12T05:55:47.314Z,85.22
2018-08-12T05:56:47.314Z,84.36
2018-08-12T05:57:47.313Z,84.46
2018-08-12T05:58:47.311Z,84.55
2018-08-12T05:59:47.311Z,84.46
2018-08-12T06:00:47.312Z,83.60
2018-08-12T06:01:47.311Z,83.03
2018-08-12T06:02:47.362Z,82.35
2018-08-12T06:03:47.308Z,82.26
2018-08-12T06:04:47.306Z,82.26
2018-08-12T06:05:47.307Z,81.97
2018-08-12T06:06:47.305Z,81.78
2018-08-12T06:07:47.305Z,81.30
2018-08-12T06:08:47.345Z,81.11
2018-08-12T06:09:47.303Z,80.63
2018-08-12T06:10:47.305Z,81.11
2018-08-12T06:11:47.305Z,80.63
2018-08-12T06:12:47.301Z,80.19
2018-08-12T06:13:47.300Z,80.29
2018-08-12T06:14:47.301Z,80.48
2018-08-12T06:15:47.299Z,80.77
2018-08-12T06:16:47.299Z,80.48
2018-08-12T06:17:47.300Z,80.38
2018-08-12T06:18:47.298Z,78.61
2018-08-12T06:19:47.296Z,79.28
2018-08-12T06:20:47.298Z,78.89
2018-08-12T06:21:47.295Z,78.99
2018-08-12T06:22:47.296Z,78.70
2018-08-12T06:23:47.298Z,78.03
2018-08-12T06:24:47.295Z,78.61
2018-08-12T06:25:47.313Z,78.03
2018-08-12T06:26:47.295Z,78.70
2018-08-12T06:27:47.294Z,78.61
2018-08-12T06:28:47.295Z,78.51
2018-08-12T06:29:47.294Z,77.84
2018-08-12T06:30:47.294Z,77.65
2018-08-12T06:31:47.294Z,77.17
2018-08-12T06:32:47.294Z,77.75
2018-08-12T06:33:47.293Z,78.03
2018-08-12T06:34:47.293Z,76.98
2018-08-12T06:35:47.292Z,77.55
2018-08-12T06:36:47.293Z,77.84
2018-08-12T06:37:47.291Z,77.94
2018-08-12T06:38:47.293Z,78.61
2018-08-12T06:39:47.301Z,78.89
2018-08-12T06:40:47.292Z,78.32
2018-08-12T06:41:47.292Z,78.17
2018-08-12T06:42:47.291Z,78.22
2018-08-12T06:43:47.293Z,78.36
2018-08-12T06:44:47.291Z,78.17
2018-08-12T06:45:47.291Z,77.88
2018-08-12T06:46:47.291Z,77.31
2018-08-12T06:47:47.295Z,77.31
2018-08-12T06:48:47.292Z,78.45
2018-08-12T06:49:47.291Z,77.78
2018-08-12T06:50:47.291Z,77.50
2018-08-12T06:51:47.362Z,77.40
2018-08-12T06:52:47.291Z,77.53
2018-08-12T06:53:47.292Z,78.11
2018-08-12T06:54:47.291Z,77.92
2018-08-12T06:55:47.291Z,76.96
2018-08-12T06:56:47.296Z,76.14
2018-08-12T06:57:47.291Z,75.95
2018-08-12T06:58:47.292Z,75.95
2018-08-12T06:59:47.291Z,73.87
2018-08-12T07:00:47.292Z,72.53
2018-08-12T07:01:47.293Z,72.72
2018-08-12T07:02:47.293Z,72.37
2018-08-12T07:03:47.292Z,71.12
2018-08-12T07:04:47.293Z,70.58
2018-08-12T07:05:47.293Z,70.72
2018-08-12T07:06:47.295Z,70.33
2018-08-12T07:07:47.294Z,68.79
2018-08-12T07:08:47.297Z,68.12
2018-08-12T07:09:47.296Z,68.02
2018-08-12T07:10:47.298Z,67.93
2018-08-12T07:11:47.298Z,67.64
2018-08-12T07:12:47.300Z,68.21
2018-08-12T07:13:47.300Z,67.54
2018-08-12T07:14:47.302Z,66.77
2018-08-12T07:15:47.302Z,66.58
2018-08-12T07:16:47.305Z,66.68
2018-08-12T07:17:47.305Z,66.58
2018-08-12T07:18:47.307Z,66.77
2018-08-12T07:19:47.310Z,67.00
2018-08-12T07:20:47.311Z,67.58
2018-08-12T07:21:47.314Z,67.77
2018-08-12T07:22:47.315Z,67.38
2018-08-12T07:23:47.320Z,67.00
2018-08-12T07:24:47.338Z,66.65
2018-08-12T07:25:47.320Z,65.97
2018-08-12T07:26:47.324Z,66.10
2018-08-12T07:27:47.327Z,65.91
2018-08-12T07:28:47.329Z,65.05
2018-08-12T07:29:47.331Z,64.28
2018-08-12T07:30:47.334Z,64.21
2018-08-12T07:31:47.336Z,63.82
2018-08-12T07:32:47.343Z,62.48
2018-08-12T07:33:47.342Z,62.48
2018-08-12T07:34:47.344Z,63.09
2018-08-12T07:35:47.347Z,61.71
2018-08-12T07:36:47.351Z,61.52
2018-08-12T07:37:47.359Z,61.22
2018-08-12T07:38:47.381Z,60.75
2018-08-12T07:39:47.361Z,60.77
2018-08-12T07:40:47.364Z,61.55
2018-08-12T07:41:47.367Z,61.10
2018-08-12T07:42:47.370Z,60.71
2018-08-12T07:43:47.374Z,60.90
2018-08-12T07:44:47.379Z,60.03
2018-08-12T07:45:47.381Z,60.13
2018-08-12T07:46:47.386Z,60.13
2018-08-12T07:47:47.392Z,60.13
2018-08-12T07:48:47.446Z,59.58
2018-08-12T07:49:47.396Z,59.30
2018-08-12T07:50:47.401Z,59.39
2018-08-12T07:51:47.405Z,58.88
2018-08-12T07:52:47.410Z,59.00
2018-08-12T07:53:47.412Z,59.00
2018-08-12T07:54:47.418Z,59.00
2018-08-12T07:55:47.496Z,59.00
2018-08-12T07:56:47.427Z,59.58
2018-08-12T07:57:47.429Z,58.42
2018-08-12T07:58:47.435Z,58.23
2018-08-12T07:59:47.439Z,57.65
2018-08-12T08:00:47.443Z,57.85
2018-08-12T08:01:47.447Z,57.75
2018-08-12T08:02:47.453Z,58.07
2018-08-12T08:03:47.457Z,57.87
2018-08-12T08:04:47.462Z,57.68
2018-08-12T08:05:47.468Z,57.29
2018-08-12T08:06:47.473Z,56.98
2018-08-12T08:07:47.477Z,57.17
2018-08-12T08:08:47.481Z,58.23
2018-08-12T08:09:47.485Z,57.68
2018-08-12T08:10:47.492Z,57.14
2018-08-12T08:11:47.496Z,55.52
2018-08-12T08:12:47.503Z,54.39
2018-08-12T08:13:47.511Z,54.49
2018-08-12T08:14:47.513Z,53.57
2018-08-12T08:15:47.521Z,52.53
2018-08-12T08:16:47.526Z,50.89
2018-08-12T08:17:47.533Z,50.24
2018-08-12T08:18:47.539Z,49.65
2018-08-12T08:19:47.551Z,49.68
2018-08-12T08:20:47.556Z,49.02
2018-08-12T08:21:47.564Z,48.66
2018-08-12T08:22:47.575Z,47.40
2018-08-12T08:23:47.581Z,46.75
2018-08-12T08:24:47.591Z,46.45
2018-08-12T08:25:47.628Z,46.14
2018-08-12T08:26:47.609Z,45.95
2018-08-12T08:27:47.619Z,46.33
2018-08-12T08:28:47.630Z,46.45
2018-08-12T08:29:47.643Z,45.61
2018-08-12T08:30:47.654Z,45.89
2018-08-12T08:31:47.838Z,45.41
2018-08-12T08:32:47.678Z,44.07
2018-08-12T08:33:47.691Z,43.88
2018-08-12T08:34:47.698Z,44.54
2018-08-12T08:35:47.712Z,44.05
2018-08-12T08:36:47.724Z,44.13
2018-08-12T08:37:47.735Z,44.32
2018-08-12T08:38:47.755Z,45.12
2018-08-12T08:39:47.762Z,44.61
2018-08-12T08:40:47.775Z,44.58
2018-08-12T08:41:47.787Z,43.66
2018-08-12T08:42:47.801Z,43.86
2018-08-12T08:43:47.815Z,43.80
2018-08-12T08:44:47.829Z,43.88
2018-08-12T08:45:47.843Z,43.68
2018-08-12T08:46:47.855Z,43.78
2018-08-12T08:47:47.869Z,44.15
2018-08-12T08:48:47.884Z,44.73
2018-08-12T08:49:47.934Z,44.75
2018-08-12T08:50:47.935Z,43.80
2018-08-12T08:51:47.926Z,42.76
2018-08-12T08:52:47.940Z,42.46
2018-08-12T08:53:47.955Z,42.46
2018-08-12T08:54:47.968Z,41.83
2018-08-12T08:55:48.085Z,40.97
2018-08-12T08:56:47.998Z,40.60
2018-08-12T08:57:48.015Z,40.31
2018-08-12T08:58:48.027Z,39.92
2018-08-12T08:59:48.042Z,39.36
2018-08-12T09:00:48.058Z,39.34
2018-08-12T09:01:48.073Z,40.85
2018-08-12T09:02:48.087Z,41.77
2018-08-12T09:03:48.104Z,42.74
2018-08-12T09:04:48.117Z,43.22
2018-08-12T09:05:48.132Z,42.97
2018-08-12T09:06:48.146Z,42.49
2018-08-12T09:07:48.163Z,41.93
2018-08-12T09:08:48.274Z,41.63
2018-08-12T09:09:48.192Z,42.46
2018-08-12T09:10:48.208Z,42.95
2018-08-12T09:11:48.223Z,43.16
2018-08-12T09:12:48.238Z,42.78
2018-08-12T09:13:48.252Z,42.60
2018-08-12T09:14:48.269Z,41.93
2018-08-12T09:15:48.284Z,42.53
2018-08-12T09:16:48.297Z,42.43
2018-08-12T09:17:48.312Z,42.14
2018-08-12T09:18:48.332Z,41.85
2018-08-12T09:19:48.344Z,41.80
2018-08-12T09:20:48.358Z,43.61
2018-08-12T09:21:48.373Z,43.90
2018-08-12T09:22:48.388Z,44.54
2018-08-12T09:23:48.403Z,44.29
2018-08-12T09:24:48.417Z,43.46
2018-08-12T09:25:48.432Z,42.31
2018-08-12T09:26:48.449Z,42.21
2018-08-12T09:27:48.464Z,42.14
2018-08-12T09:28:48.476Z,41.26
2018-08-12T09:29:48.495Z,41.26
2018-08-12T09:30:48.506Z,40.56
2018-08-12T09:31:48.524Z,41.14
2018-08-12T09:32:48.536Z,41.34
2018-08-12T09:33:48.551Z,41.65
2018-08-12T09:34:48.565Z,42.04
2018-08-12T09:35:48.580Z,41.16
2018-08-12T09:36:48.595Z,40.48
2018-08-12T09:37:48.611Z,41.83
2018-08-12T09:38:48.624Z,42.19
2018-08-12T09:39:48.641Z,42.78
2018-08-12T09:40:48.655Z,42.72
2018-08-12T09:41:48.670Z,40.70
2018-08-12T09:42:48.688Z,39.96
2018-08-12T09:43:48.700Z,39.10
2018-08-12T09:44:48.715Z,38.90
2018-08-12T09:45:48.728Z,38.67
2018-08-12T09:46:48.744Z,39.75
2018-08-12T09:47:48.759Z,40.16
2018-08-12T09:48:48.775Z,39.84
2018-08-12T09:49:48.789Z,39.86
2018-08-12T09:50:48.803Z,39.92
2018-08-12T09:51:48.857Z,40.68
2018-08-12T09:52:48.842Z,41.16
2018-08-12T09:53:48.849Z,41.36
2018-08-12T09:54:48.863Z,41.19
2018-08-12T09:55:48.882Z,40.68
2018-08-12T09:56:48.897Z,40.48
2018-08-12T09:57:48.909Z,40.97
2018-08-12T09:58:48.924Z,40.70
2018-08-12T09:59:48.941Z,40.33
2018-08-12T10:00:48.957Z,39.84
2018-08-12T10:01:48.968Z,39.75
2018-08-12T10:02:48.984Z,40.70
2018-08-12T10:03:48.998Z,41.09
2018-08-12T10:04:49.013Z,40.70
2018-08-12T10:05:49.027Z,40.88
2018-08-12T10:06:49.042Z,41.90
2018-08-12T10:07:49.057Z,41.63
2018-08-12T10:08:49.074Z,41.38
2018-08-12T10:09:49.090Z,40.80
2018-08-12T10:10:49.102Z,40.89
2018-08-12T10:11:49.117Z,40.81
2018-08-12T10:12:49.131Z,40.72
2018-08-12T10:13:49.147Z,39.59
2018-08-12T10:14:49.159Z,38.53
2018-08-12T10:15:49.174Z,37.87
2018-08-12T10:16:49.189Z,37.96
2018-08-12T10:17:49.205Z,38.55
2018-08-12T10:18:49.218Z,38.45
2018-08-12T10:19:49.233Z,38.06
2018-08-12T10:20:49.248Z,39.02
2018-08-12T10:21:49.263Z,39.59
2018-08-12T10:22:49.279Z,39.59
2018-08-12T10:23:49.294Z,39.02
2018-08-12T10:24:49.307Z,39.20
2018-08-12T10:25:49.321Z,39.37
2018-08-12T10:26:49.338Z,39.10
2018-08-12T10:27:49.352Z,38.73
2018-08-12T10:28:49.367Z,38.96
2018-08-12T10:29:49.385Z,39.69
2018-08-12T10:30:49.397Z,39.00
2018-08-12T10:31:49.410Z,40.58
2018-08-12T10:32:49.426Z,41.44
2018-08-12T10:33:49.439Z,41.09
2018-08-12T10:34:49.458Z,40.13
2018-08-12T10:35:49.471Z,40.33
2018-08-12T10:36:49.487Z,40.62
2018-08-12T10:37:49.499Z,40.55
2018-08-12T10:38:49.513Z,40.27
2018-08-12T10:39:49.532Z,39.49
2018-08-12T10:40:49.545Z,39.00
2018-08-12T10:41:49.560Z,38.90
2018-08-12T10:42:49.572Z,38.53
2018-08-12T10:43:49.595Z,39.00
2018-08-12T10:44:49.601Z,39.29
2018-08-12T10:45:49.618Z,39.20
2018-08-12T10:46:49.631Z,40.41
2018-08-12T10:47:49.644Z,40.89
2018-08-12T10:48:49.659Z,41.48
2018-08-12T10:49:49.674Z,40.73
2018-08-12T10:50:49.743Z,40.73
2018-08-12T10:51:49.703Z,40.93
2018-08-12T10:52:49.715Z,40.23
2018-08-12T10:53:49.731Z,40.42
2018-08-12T10:54:49.745Z,40.73
2018-08-12T10:55:49.761Z,40.08
2018-08-12T10:56:49.772Z,40.37
2018-08-12T10:57:49.786Z,40.27
2018-08-12T10:58:49.801Z,39.75
2018-08-12T10:59:49.815Z,40.58
2018-08-12T11:00:49.832Z,41.46
2018-08-12T11:01:49.844Z,41.93
2018-08-12T11:02:49.856Z,41.94
2018-08-12T11:03:49.871Z,42.11
2018-08-12T11:04:49.886Z,41.94
2018-08-12T11:05:49.898Z,42.16
2018-08-12T11:06:49.912Z,41.16
2018-08-12T11:07:49.929Z,41.75
2018-08-12T11:08:49.941Z,41.86
2018-08-12T11:09:49.953Z,41.79
2018-08-12T11:10:49.966Z,41.65
2018-08-12T11:11:49.981Z,42.60
2018-08-12T11:12:50.011Z,43.54
2018-08-12T11:13:50.007Z,44.31
2018-08-12T11:14:50.019Z,44.68
2018-08-12T11:15:50.033Z,45.84
2018-08-12T11:16:50.046Z,46.31
2018-08-12T11:17:50.058Z,46.50
2018-08-12T11:18:50.073Z,46.72
2018-08-12T11:19:50.085Z,46.23
2018-08-12T11:20:50.103Z,45.36
2018-08-12T11:21:50.108Z,44.87
2018-08-12T11:22:50.121Z,44.97
2018-08-12T11:23:50.135Z,45.07
2018-08-12T11:24:50.147Z,45.48
2018-08-12T11:25:50.158Z,44.68
2018-08-12T11:26:50.171Z,44.78
2018-08-12T11:29:28.633Z,45.67
2018-08-12T11:30:28.644Z,44.70
2018-08-12T11:31:28.654Z,43.96
2018-08-12T11:32:28.666Z,43.55
2018-08-12T11:33:28.676Z,44.04
2018-08-12T11:34:28.689Z,44.31
2018-08-12T11:35:28.700Z,45.57
2018-08-12T11:36:28.711Z,44.99
2018-08-12T11:37:28.724Z,43.95
2018-08-12T11:38:28.735Z,44.21
2018-08-12T11:39:28.743Z,44.53
2018-08-12T11:40:28.755Z,44.53
2018-08-12T11:41:28.766Z,43.95
2018-08-12T11:42:28.776Z,43.36
2018-08-12T11:43:28.787Z,44.14
2018-08-12T11:44:28.799Z,44.43
2018-08-12T11:45:28.808Z,45.01
2018-08-12T11:47:55.893Z,43.92
2018-08-12T11:48:55.500Z,44.87
2018-08-12T11:49:55.505Z,45.75
2018-08-12T11:50:55.515Z,45.67
2018-08-12T11:51:55.527Z,45.17
2018-08-12T11:52:55.537Z,45.45
2018-08-12T11:53:55.546Z,46.62
2018-08-12T11:54:55.557Z,45.45
2018-08-12T11:55:55.569Z,45.55
2018-08-12T11:56:55.625Z,46.06
2018-08-12T11:57:55.588Z,46.04
2018-08-12T11:58:55.601Z,45.94
2018-08-12T11:59:55.609Z,45.87
2018-08-12T12:00:55.619Z,45.87
2018-08-12T12:01:55.630Z,46.06
2018-08-12T12:02:55.638Z,46.18
2018-08-12T12:03:55.651Z,45.77
2018-08-12T12:04:55.659Z,45.57
2018-08-12T12:05:55.668Z,45.60
2018-08-12T12:06:55.684Z,45.67
2018-08-12T12:07:55.691Z,45.57
2018-08-12T12:08:55.698Z,45.57
2018-08-12T12:09:55.707Z,45.48
2018-08-12T12:10:55.716Z,45.87
2018-08-12T12:11:55.726Z,46.06
2018-08-12T12:12:55.736Z,45.67
2018-08-12T12:13:55.747Z,45.97
2018-08-12T12:14:55.764Z,45.26
2018-08-12T12:15:55.766Z,46.25
2018-08-12T12:16:55.778Z,46.25
2018-08-12T12:17:55.784Z,45.67
2018-08-12T12:18:55.794Z,45.87
2018-08-12T12:19:55.804Z,45.67
2018-08-12T12:20:55.814Z,45.87
2018-08-12T12:21:55.821Z,45.77
2018-08-12T12:22:55.831Z,44.99
2018-08-12T12:23:55.840Z,45.84
2018-08-12T12:24:55.850Z,46.42
2018-08-12T12:25:55.869Z,46.72
2018-08-12T12:26:55.868Z,46.15
2018-08-12T12:27:55.877Z,45.84
2018-08-12T12:28:55.889Z,46.04
2018-08-12T12:29:55.895Z,46.14
2018-08-12T12:30:55.906Z,45.97
2018-08-12T12:31:55.917Z,46.06
2018-08-12T12:32:55.924Z,46.06
2018-08-12T12:33:55.933Z,45.57
2018-08-12T12:34:55.943Z,45.09
2018-08-12T12:35:55.954Z,45.28
2018-08-12T12:36:55.961Z,45.21
2018-08-12T12:37:55.970Z,44.41
2018-08-12T12:38:55.977Z,45.09
2018-08-12T12:39:55.987Z,45.57
2018-08-12T12:40:55.997Z,44.72
2018-08-12T12:41:56.008Z,45.31
2018-08-12T12:42:56.060Z,45.21
2018-08-12T12:43:56.023Z,44.14
2018-08-12T12:44:56.032Z,43.75
2018-08-12T12:45:56.041Z,43.75
2018-08-12T12:46:56.051Z,44.43
2018-08-12T12:47:56.059Z,43.85
2018-08-12T12:48:56.068Z,44.33
2018-08-12T12:49:56.075Z,44.70
2018-08-12T12:50:56.086Z,44.43
2018-08-12T12:51:56.094Z,43.95
2018-08-12T12:52:56.104Z,44.41
2018-08-12T12:53:56.111Z,44.60
2018-08-12T12:54:56.120Z,44.53
2018-08-12T12:55:56.129Z,44.24